sensor_id;sensor_type;location;lat;lon;timestamp;pressure;altitude;pressure_sealevel;temperature;humidity
25638;BME280;13496;51.040;13.680;2024-01-25T00:02:01;100139.22;;;17.06;48.01
25638;BME280;13496;51.040;13.680;2024-01-25T00:07:03;100122.50;;;17.07;47.97
25638;BME280;13496;51.040;13.680;2024-01-25T00:12:05;100118.06;;;17.07;48.07
25638;BME280;13496;51.040;13.680;2024-01-25T00:17:07;100122.31;;;17.08;48.03
25638;BME280;13496;51.040;13.680;2024-01-25T00:22:08;100126.91;;;17.06;48.11
25638;BME280;13496;51.040;13.680;2024-01-25T00:27:10;100139.22;;;17.06;48.09
25638;BME280;13496;51.040;13.680;2024-01-25T00:32:12;100134.59;;;17.08;47.96
25638;BME280;13496;51.040;13.680;2024-01-25T00:37:14;100139.22;;;17.06;47.96
25638;BME280;13496;51.040;13.680;2024-01-25T00:42:17;100156.56;;;17.07;47.90
25638;BME280;13496;51.040;13.680;2024-01-25T00:47:23;100160.34;;;17.04;48.07
25638;BME280;13496;51.040;13.680;2024-01-25T00:52:25;100153.47;;;17.03;48.10
25638;BME280;13496;51.040;13.680;2024-01-25T00:57:27;100172.44;;;17.05;48.02
25638;BME280;13496;51.040;13.680;2024-01-25T01:02:36;100171.81;;;17.03;47.96
25638;BME280;13496;51.040;13.680;2024-01-25T01:07:40;100173.63;;;17.03;48.00
25638;BME280;13496;51.040;13.680;2024-01-25T01:12:42;100180.50;;;17.04;48.01
25638;BME280;13496;51.040;13.680;2024-01-25T01:17:44;100188.34;;;17.04;48.09
25638;BME280;13496;51.040;13.680;2024-01-25T01:22:46;100194.59;;;17.03;48.03
25638;BME280;13496;51.040;13.680;2024-01-25T01:27:48;100197.84;;;17.05;48.15
25638;BME280;13496;51.040;13.680;2024-01-25T01:32:49;100203.28;;;17.03;48.19
25638;BME280;13496;51.040;13.680;2024-01-25T01:37:51;100200.66;;;17.03;48.17
25638;BME280;13496;51.040;13.680;2024-01-25T01:43:00;100192.78;;;17.03;48.41
25638;BME280;13496;51.040;13.680;2024-01-25T01:48:02;100209.50;;;17.02;47.89
25638;BME280;13496;51.040;13.680;2024-01-25T01:53:05;100197.53;;;17.00;47.88
25638;BME280;13496;51.040;13.680;2024-01-25T01:58:07;100199.03;;;17.02;48.13
25638;BME280;13496;51.040;13.680;2024-01-25T02:03:09;100212.75;;;17.04;48.01
25638;BME280;13496;51.040;13.680;2024-01-25T02:08:11;100203.41;;;17.02;48.11
25638;BME280;13496;51.040;13.680;2024-01-25T02:13:14;100199.50;;;16.98;48.14
25638;BME280;13496;51.040;13.680;2024-01-25T02:18:16;100189.69;;;17.00;48.19
25638;BME280;13496;51.040;13.680;2024-01-25T02:23:17;100180.81;;;17.01;48.03
25638;BME280;13496;51.040;13.680;2024-01-25T02:28:19;100190.66;;;16.99;48.14
25638;BME280;13496;51.040;13.680;2024-01-25T02:33:21;100197.38;;;17.01;48.05
25638;BME280;13496;51.040;13.680;2024-01-25T02:38:23;100196.06;;;16.97;48.02
25638;BME280;13496;51.040;13.680;2024-01-25T02:43:25;100212.28;;;17.01;48.06
25638;BME280;13496;51.040;13.680;2024-01-25T02:48:27;100209.03;;;16.99;48.16
25638;BME280;13496;51.040;13.680;2024-01-25T02:53:28;100213.41;;;16.98;47.87
25638;BME280;13496;51.040;13.680;2024-01-25T02:58:30;100219.66;;;16.97;47.97
25638;BME280;13496;51.040;13.680;2024-01-25T03:03:32;100232.44;;;17.00;47.88
25638;BME280;13496;51.040;13.680;2024-01-25T03:08:34;100251.28;;;16.96;47.99
25638;BME280;13496;51.040;13.680;2024-01-25T03:13:36;100247.50;;;16.98;48.05
25638;BME280;13496;51.040;13.680;2024-01-25T03:18:38;100249.66;;;16.95;47.78
25638;BME280;13496;51.040;13.680;2024-01-25T03:23:40;100261.91;;;16.94;48.13
25638;BME280;13496;51.040;13.680;2024-01-25T03:28:42;100261.09;;;16.93;47.99
25638;BME280;13496;51.040;13.680;2024-01-25T03:33:44;100260.28;;;16.93;47.86
25638;BME280;13496;51.040;13.680;2024-01-25T03:38:45;100247.34;;;16.91;48.09
25638;BME280;13496;51.040;13.680;2024-01-25T03:43:47;100251.59;;;16.92;47.82
25638;BME280;13496;51.040;13.680;2024-01-25T03:48:49;100257.66;;;16.93;48.17
25638;BME280;13496;51.040;13.680;2024-01-25T03:53:51;100262.09;;;16.92;47.96
25638;BME280;13496;51.040;13.680;2024-01-25T03:58:54;100257.03;;;16.91;47.84
25638;BME280;13496;51.040;13.680;2024-01-25T04:03:56;100249.00;;;16.92;47.98
25638;BME280;13496;51.040;13.680;2024-01-25T04:08:57;100228.34;;;16.89;47.91
25638;BME280;13496;51.040;13.680;2024-01-25T04:13:59;100240.47;;;16.90;47.94
25638;BME280;13496;51.040;13.680;2024-01-25T04:19:01;100247.00;;;16.86;47.90
25638;BME280;13496;51.040;13.680;2024-01-25T04:24:03;100246.19;;;16.86;47.67
25638;BME280;13496;51.040;13.680;2024-01-25T04:29:05;100259.97;;;16.88;47.89
25638;BME280;13496;51.040;13.680;2024-01-25T04:34:08;100254.88;;;16.86;47.74
25638;BME280;13496;51.040;13.680;2024-01-25T04:39:10;100260.13;;;16.86;47.75
25638;BME280;13496;51.040;13.680;2024-01-25T04:44:12;100248.66;;;16.87;47.89
25638;BME280;13496;51.040;13.680;2024-01-25T04:49:13;100266.34;;;16.85;48.13
25638;BME280;13496;51.040;13.680;2024-01-25T04:54:15;100280.13;;;16.87;47.78
25638;BME280;13496;51.040;13.680;2024-01-25T04:59:17;100279.44;;;16.85;47.77
25638;BME280;13496;51.040;13.680;2024-01-25T05:04:19;100280.13;;;16.87;47.63
25638;BME280;13496;51.040;13.680;2024-01-25T05:09:20;100285.84;;;16.83;47.57
25638;BME280;13496;51.040;13.680;2024-01-25T05:14:22;100285.69;;;16.84;47.72
25638;BME280;13496;51.040;13.680;2024-01-25T05:19:24;100277.97;;;16.83;47.67
25638;BME280;13496;51.040;13.680;2024-01-25T05:24:27;100270.78;;;16.85;47.92
25638;BME280;13496;51.040;13.680;2024-01-25T05:29:28;100279.44;;;16.85;47.72
25638;BME280;13496;51.040;13.680;2024-01-25T05:34:30;100293.06;;;16.81;47.58
25638;BME280;13496;51.040;13.680;2024-01-25T05:39:32;100316.16;;;16.85;47.74
25638;BME280;13496;51.040;13.680;2024-01-25T05:44:34;100310.41;;;16.82;47.82
25638;BME280;13496;51.040;13.680;2024-01-25T05:49:36;100315.66;;;16.82;47.75
25638;BME280;13496;51.040;13.680;2024-01-25T05:54:38;100323.00;;;16.86;47.71
25638;BME280;13496;51.040;13.680;2024-01-25T05:59:40;100341.69;;;16.83;47.77
25638;BME280;13496;51.040;13.680;2024-01-25T06:04:41;100349.53;;;16.83;47.71
25638;BME280;13496;51.040;13.680;2024-01-25T06:09:43;100354.63;;;16.85;47.80
25638;BME280;13496;51.040;13.680;2024-01-25T06:14:45;100364.63;;;16.81;47.72
25638;BME280;13496;51.040;13.680;2024-01-25T06:19:47;100370.50;;;16.83;47.87
25638;BME280;13496;51.040;13.680;2024-01-25T06:24:48;100379.53;;;16.81;47.96
25638;BME280;13496;51.040;13.680;2024-01-25T06:29:50;100363.00;;;16.80;47.53
25638;BME280;13496;51.040;13.680;2024-01-25T06:34:52;100383.97;;;16.80;47.76
25638;BME280;13496;51.040;13.680;2024-01-25T06:39:54;100394.44;;;16.80;48.04
25638;BME280;13496;51.040;13.680;2024-01-25T06:44:56;100394.44;;;16.80;47.80
25638;BME280;13496;51.040;13.680;2024-01-25T06:49:58;100389.50;;;16.77;48.22
25638;BME280;13496;51.040;13.680;2024-01-25T06:55:00;100388.53;;;16.78;48.02
25638;BME280;13496;51.040;13.680;2024-01-25T07:00:02;100404.09;;;16.80;47.94
25638;BME280;13496;51.040;13.680;2024-01-25T07:05:04;100412.28;;;16.77;47.49
25638;BME280;13496;51.040;13.680;2024-01-25T07:10:07;100415.53;;;16.79;47.97
25638;BME280;13496;51.040;13.680;2024-01-25T07:15:09;100420.66;;;16.80;48.08
25638;BME280;13496;51.040;13.680;2024-01-25T07:20:11;100438.00;;;16.81;48.00
25638;BME280;13496;51.040;13.680;2024-01-25T07:25:12;100440.63;;;16.81;48.02
25638;BME280;13496;51.040;13.680;2024-01-25T07:30:14;100433.41;;;16.83;48.01
25638;BME280;13496;51.040;13.680;2024-01-25T07:35:16;100439.00;;;16.80;48.13
25638;BME280;13496;51.040;13.680;2024-01-25T07:40:19;100445.88;;;16.81;48.13
25638;BME280;13496;51.040;13.680;2024-01-25T07:45:21;100464.72;;;16.85;48.11
25638;BME280;13496;51.040;13.680;2024-01-25T07:50:23;100457.97;;;16.82;48.03
25638;BME280;13496;51.040;13.680;2024-01-25T07:55:25;100458.66;;;16.84;47.89
25638;BME280;13496;51.040;13.680;2024-01-25T08:00:26;100463.72;;;16.86;48.00
25638;BME280;13496;51.040;13.680;2024-01-25T08:05:28;100463.59;;;16.87;47.91
25638;BME280;13496;51.040;13.680;2024-01-25T08:10:30;100465.22;;;16.88;47.85
25638;BME280;13496;51.040;13.680;2024-01-25T08:15:32;100462.72;;;16.87;47.74
25638;BME280;13496;51.040;13.680;2024-01-25T08:20:36;100475.38;;;16.91;47.75
25638;BME280;13496;51.040;13.680;2024-01-25T08:25:38;100480.47;;;16.93;47.80
25638;BME280;13496;51.040;13.680;2024-01-25T08:30:40;100477.03;;;16.92;47.79
25638;BME280;13496;51.040;13.680;2024-01-25T08:35:42;100480.63;;;16.91;47.79
25638;BME280;13496;51.040;13.680;2024-01-25T08:40:44;100488.81;;;16.97;47.77
25638;BME280;13496;51.040;13.680;2024-01-25T08:45:46;100491.28;;;16.98;47.32
25638;BME280;13496;51.040;13.680;2024-01-25T08:50:47;100493.91;;;16.98;47.66
25638;BME280;13496;51.040;13.680;2024-01-25T08:55:54;100514.09;;;17.06;47.41
25638;BME280;13496;51.040;13.680;2024-01-25T09:00:56;100503.94;;;17.03;47.25
25638;BME280;13496;51.040;13.680;2024-01-25T09:05:58;100507.50;;;17.02;47.24
25638;BME280;13496;51.040;13.680;2024-01-25T09:11:00;100506.56;;;17.03;47.25
25638;BME280;13496;51.040;13.680;2024-01-25T09:16:02;100507.50;;;17.02;47.41
25638;BME280;13496;51.040;13.680;2024-01-25T09:21:03;100514.41;;;17.03;47.24
25638;BME280;13496;51.040;13.680;2024-01-25T09:26:05;100511.94;;;17.01;46.68
25638;BME280;13496;51.040;13.680;2024-01-25T09:31:07;100506.56;;;17.03;47.23
25638;BME280;13496;51.040;13.680;2024-01-25T09:36:09;100517.03;;;17.03;46.78
25638;BME280;13496;51.040;13.680;2024-01-25T09:41:11;100529.16;;;17.04;46.35
25638;BME280;13496;51.040;13.680;2024-01-25T09:46:13;100533.09;;;17.08;46.55
25638;BME280;13496;51.040;13.680;2024-01-25T09:51:17;100536.91;;;17.13;47.00
25638;BME280;13496;51.040;13.680;2024-01-25T09:56:20;100557.03;;;17.13;46.67
25638;BME280;13496;51.040;13.680;2024-01-25T10:01:23;100558.38;;;17.17;46.97
25638;BME280;13496;51.040;13.680;2024-01-25T10:06:25;100575.75;;;17.18;46.75
25638;BME280;13496;51.040;13.680;2024-01-25T10:11:27;100580.97;;;17.10;46.73
25638;BME280;13496;51.040;13.680;2024-01-25T10:16:34;100585.84;;;17.05;46.41
25638;BME280;13496;51.040;13.680;2024-01-25T10:21:36;100599.16;;;17.11;45.79
25638;BME280;13496;51.040;13.680;2024-01-25T10:26:38;100587.34;;;17.07;45.90
25638;BME280;13496;51.040;13.680;2024-01-25T10:31:42;100590.44;;;17.03;45.62
25638;BME280;13496;51.040;13.680;2024-01-25T10:36:45;100602.72;;;17.02;45.75
25638;BME280;13496;51.040;13.680;2024-01-25T10:41:47;100602.91;;;17.09;45.71
25638;BME280;13496;51.040;13.680;2024-01-25T10:46:52;100586.03;;;17.11;45.91
25638;BME280;13496;51.040;13.680;2024-01-25T10:51:56;100575.88;;;17.08;45.80
25638;BME280;13496;51.040;13.680;2024-01-25T10:56:58;100574.13;;;17.17;46.20
25638;BME280;13496;51.040;13.680;2024-01-25T11:02:01;100575.88;;;17.08;45.65
25638;BME280;13496;51.040;13.680;2024-01-25T11:07:08;100598.50;;;17.09;46.14
25638;BME280;13496;51.040;13.680;2024-01-25T11:12:14;100594.75;;;17.20;46.30
25638;BME280;13496;51.040;13.680;2024-01-25T11:17:19;100581.13;;;17.16;46.27
25638;BME280;13496;51.040;13.680;2024-01-25T11:22:22;100566.59;;;17.22;46.50
25638;BME280;13496;51.040;13.680;2024-01-25T11:27:24;100575.44;;;17.21;46.47
25638;BME280;13496;51.040;13.680;2024-01-25T11:32:26;100580.50;;;17.14;45.84
25638;BME280;13496;51.040;13.680;2024-01-25T11:37:28;100576.75;;;17.17;45.92
25638;BME280;13496;51.040;13.680;2024-01-25T11:42:29;100588.84;;;17.10;44.90
25638;BME280;13496;51.040;13.680;2024-01-25T11:47:32;100586.38;;;17.16;45.73
25638;BME280;13496;51.040;13.680;2024-01-25T11:52:34;100578.38;;;17.18;46.12
25638;BME280;13496;51.040;13.680;2024-01-25T11:57:38;100574.13;;;17.17;45.98
25638;BME280;13496;51.040;13.680;2024-01-25T12:02:40;100585.94;;;17.21;46.33
25638;BME280;13496;51.040;13.680;2024-01-25T12:07:42;100584.41;;;17.10;45.61
25638;BME280;13496;51.040;13.680;2024-01-25T12:12:44;100567.72;;;17.20;46.00
25638;BME280;13496;51.040;13.680;2024-01-25T12:17:46;100567.91;;;17.26;46.29
25638;BME280;13496;51.040;13.680;2024-01-25T12:22:48;100579.69;;;17.22;45.83
25638;BME280;13496;51.040;13.680;2024-01-25T12:27:50;100577.69;;;17.16;45.06
25638;BME280;13496;51.040;13.680;2024-01-25T12:32:52;100567.22;;;17.16;46.02
25638;BME280;13496;51.040;13.680;2024-01-25T12:37:53;100555.09;;;17.15;45.23
25638;BME280;13496;51.040;13.680;2024-01-25T12:42:55;100560.34;;;17.15;45.84
25638;BME280;13496;51.040;13.680;2024-01-25T12:47:57;100553.47;;;17.22;46.14
25638;BME280;13496;51.040;13.680;2024-01-25T12:52:59;100563.97;;;17.22;45.68
25638;BME280;13496;51.040;13.680;2024-01-25T12:58:02;100546.69;;;17.03;45.08
25638;BME280;13496;51.040;13.680;2024-01-25T13:03:04;100548.84;;;17.08;45.59
25638;BME280;13496;51.040;13.680;2024-01-25T13:08:06;100563.78;;;17.15;45.64
25638;BME280;13496;51.040;13.680;2024-01-25T13:13:08;100566.41;;;17.15;46.07
25638;BME280;13496;51.040;13.680;2024-01-25T13:18:10;100565.91;;;17.20;46.24
25638;BME280;13496;51.040;13.680;2024-01-25T13:23:12;100573.16;;;17.26;46.41
25638;BME280;13496;51.040;13.680;2024-01-25T13:28:13;100578.41;;;17.26;46.59
25638;BME280;13496;51.040;13.680;2024-01-25T13:33:15;100578.72;;;17.23;46.25
25638;BME280;13496;51.040;13.680;2024-01-25T13:38:17;100577.69;;;17.08;45.71
25638;BME280;13496;51.040;13.680;2024-01-25T13:43:19;100577.56;;;17.17;45.98
25638;BME280;13496;51.040;13.680;2024-01-25T13:48:21;100584.91;;;17.14;45.80
25638;BME280;13496;51.040;13.680;2024-01-25T13:53:22;100577.38;;;17.19;46.28
25638;BME280;13496;51.040;13.680;2024-01-25T13:58:24;100588.38;;;17.23;46.41
25638;BME280;13496;51.040;13.680;2024-01-25T14:03:26;100584.78;;;17.24;46.43
25638;BME280;13496;51.040;13.680;2024-01-25T14:08:28;100586.25;;;17.18;46.10
25638;BME280;13496;51.040;13.680;2024-01-25T14:13:29;100596.72;;;17.18;45.87
25638;BME280;13496;51.040;13.680;2024-01-25T14:18:39;100600.34;;;17.17;46.27
25638;BME280;13496;51.040;13.680;2024-01-25T14:23:41;100601.66;;;17.21;46.63
25638;BME280;13496;51.040;13.680;2024-01-25T14:28:43;100604.28;;;17.21;46.61
25638;BME280;13496;51.040;13.680;2024-01-25T14:33:44;100621.81;;;17.21;46.44
25638;BME280;13496;51.040;13.680;2024-01-25T14:38:46;100621.16;;;17.18;46.56
25638;BME280;13496;51.040;13.680;2024-01-25T14:43:48;100616.91;;;17.17;46.51
25638;BME280;13496;51.040;13.680;2024-01-25T14:48:50;100616.72;;;17.19;46.95
25638;BME280;13496;51.040;13.680;2024-01-25T14:53:52;100613.47;;;17.17;46.75
25638;BME280;13496;51.040;13.680;2024-01-25T14:58:55;100622.44;;;17.14;46.83
25638;BME280;13496;51.040;13.680;2024-01-25T15:03:56;100625.72;;;17.16;46.87
25638;BME280;13496;51.040;13.680;2024-01-25T15:08:59;100626.56;;;17.17;46.72
25638;BME280;13496;51.040;13.680;2024-01-25T15:14:01;100631.81;;;17.17;46.80
25638;BME280;13496;51.040;13.680;2024-01-25T15:19:03;100632.75;;;17.16;46.92
25638;BME280;13496;51.040;13.680;2024-01-25T15:24:05;100637.38;;;17.14;46.71
25638;BME280;13496;51.040;13.680;2024-01-25T15:29:07;100639.16;;;17.13;47.04
25638;BME280;13496;51.040;13.680;2024-01-25T15:34:09;100647.03;;;17.13;46.55
25638;BME280;13496;51.040;13.680;2024-01-25T15:39:11;100646.19;;;17.13;46.89
25638;BME280;13496;51.040;13.680;2024-01-25T15:44:13;100659.28;;;17.13;46.82
25638;BME280;13496;51.040;13.680;2024-01-25T15:49:15;100651.59;;;17.11;47.15
25638;BME280;13496;51.040;13.680;2024-01-25T15:54:17;100660.59;;;17.09;47.13
25638;BME280;13496;51.040;13.680;2024-01-25T15:59:18;100663.88;;;17.11;47.22
25638;BME280;13496;51.040;13.680;2024-01-25T16:04:20;100680.59;;;17.10;47.07
25638;BME280;13496;51.040;13.680;2024-01-25T16:09:22;100676.19;;;17.10;46.92
25638;BME280;13496;51.040;13.680;2024-01-25T16:14:24;100688.47;;;17.10;47.27
25638;BME280;13496;51.040;13.680;2024-01-25T16:19:25;100693.84;;;17.08;47.20
25638;BME280;13496;51.040;13.680;2024-01-25T16:24:27;100710.41;;;17.09;47.09
25638;BME280;13496;51.040;13.680;2024-01-25T16:29:29;100714.69;;;17.10;47.38
25638;BME280;13496;51.040;13.680;2024-01-25T16:34:31;100706.97;;;17.08;47.42
25638;BME280;13496;51.040;13.680;2024-01-25T16:39:33;100714.69;;;17.10;47.13
25638;BME280;13496;51.040;13.680;2024-01-25T16:44:34;100713.88;;;17.09;47.46
25638;BME280;13496;51.040;13.680;2024-01-25T16:49:36;100712.22;;;17.08;47.44
25638;BME280;13496;51.040;13.680;2024-01-25T16:54:38;100718.94;;;17.11;47.24
25638;BME280;13496;51.040;13.680;2024-01-25T16:59:40;100717.44;;;17.08;47.38
25638;BME280;13496;51.040;13.680;2024-01-25T17:04:41;100720.75;;;17.10;47.23
25638;BME280;13496;51.040;13.680;2024-01-25T17:09:44;100717.97;;;17.12;47.27
25638;BME280;13496;51.040;13.680;2024-01-25T17:14:46;100718.28;;;17.09;47.18
25638;BME280;13496;51.040;13.680;2024-01-25T17:19:48;100710.28;;;17.10;47.40
25638;BME280;13496;51.040;13.680;2024-01-25T17:24:49;100704.22;;;17.10;47.23
25638;BME280;13496;51.040;13.680;2024-01-25T17:29:52;100711.91;;;17.11;47.61
25638;BME280;13496;51.040;13.680;2024-01-25T17:34:54;100716.34;;;17.11;47.40
25638;BME280;13496;51.040;13.680;2024-01-25T17:39:57;100714.00;;;17.08;47.66
25638;BME280;13496;51.040;13.680;2024-01-25T17:44:59;100726.31;;;17.07;47.46
25638;BME280;13496;51.040;13.680;2024-01-25T17:50:00;100726.13;;;17.09;47.62
25638;BME280;13496;51.040;13.680;2024-01-25T17:55:02;100722.88;;;17.07;47.44
25638;BME280;13496;51.040;13.680;2024-01-25T18:00:05;100732.38;;;17.08;47.74
25638;BME280;13496;51.040;13.680;2024-01-25T18:05:07;100731.38;;;17.09;47.69
25638;BME280;13496;51.040;13.680;2024-01-25T18:10:09;100725.50;;;17.07;47.67
25638;BME280;13496;51.040;13.680;2024-01-25T18:15:13;100735.81;;;17.08;47.54
25638;BME280;13496;51.040;13.680;2024-01-25T18:20:16;100742.84;;;17.08;47.55
25638;BME280;13496;51.040;13.680;2024-01-25T18:25:19;100742.84;;;17.08;47.79
25638;BME280;13496;51.040;13.680;2024-01-25T18:30:22;100739.25;;;17.09;47.72
25638;BME280;13496;51.040;13.680;2024-01-25T18:35:24;100734.00;;;17.09;47.67
25638;BME280;13496;51.040;13.680;2024-01-25T18:40:25;100739.25;;;17.09;47.56
25638;BME280;13496;51.040;13.680;2024-01-25T18:45:27;100747.13;;;17.09;47.90
25638;BME280;13496;51.040;13.680;2024-01-25T18:50:29;100748.09;;;17.08;47.89
25638;BME280;13496;51.040;13.680;2024-01-25T18:55:33;100737.31;;;17.11;47.93
25638;BME280;13496;51.040;13.680;2024-01-25T19:00:35;100738.44;;;17.08;47.67
25638;BME280;13496;51.040;13.680;2024-01-25T19:05:37;100743.66;;;17.08;47.83
25638;BME280;13496;51.040;13.680;2024-01-25T19:10:40;100741.88;;;17.09;47.78
25638;BME280;13496;51.040;13.680;2024-01-25T19:15:42;100742.56;;;17.11;47.81
25638;BME280;13496;51.040;13.680;2024-01-25T19:20:43;100747.97;;;17.09;47.87
25638;BME280;13496;51.040;13.680;2024-01-25T19:25:45;100747.78;;;17.11;48.08
25638;BME280;13496;51.040;13.680;2024-01-25T19:30:47;100744.50;;;17.09;48.14
25638;BME280;13496;51.040;13.680;2024-01-25T19:35:49;100746.97;;;17.10;47.93
25638;BME280;13496;51.040;13.680;2024-01-25T19:40:51;100750.59;;;17.09;48.05
25638;BME280;13496;51.040;13.680;2024-01-25T19:45:53;100744.50;;;17.09;48.25
25638;BME280;13496;51.040;13.680;2024-01-25T19:50:55;100747.78;;;17.11;48.22
25638;BME280;13496;51.040;13.680;2024-01-25T19:55:58;100756.47;;;17.11;48.21
25638;BME280;13496;51.040;13.680;2024-01-25T20:01:00;100750.59;;;17.09;48.50
25638;BME280;13496;51.040;13.680;2024-01-25T20:06:02;100752.06;;;17.12;48.48
25638;BME280;13496;51.040;13.680;2024-01-25T20:11:04;100754.16;;;17.08;48.44
25638;BME280;13496;51.040;13.680;2024-01-25T20:16:06;100750.59;;;17.09;48.40
25638;BME280;13496;51.040;13.680;2024-01-25T20:21:08;100759.28;;;17.10;48.59
25638;BME280;13496;51.040;13.680;2024-01-25T20:26:10;100756.47;;;17.11;48.38
25638;BME280;13496;51.040;13.680;2024-01-25T20:31:13;100755.50;;;17.12;48.38
25638;BME280;13496;51.040;13.680;2024-01-25T20:36:16;100751.06;;;17.13;48.53
25638;BME280;13496;51.040;13.680;2024-01-25T20:41:18;100745.16;;;17.11;48.48
25638;BME280;13496;51.040;13.680;2024-01-25T20:46:20;100753.03;;;17.11;48.48
25638;BME280;13496;51.040;13.680;2024-01-25T20:51:22;100753.69;;;17.13;48.56
25638;BME280;13496;51.040;13.680;2024-01-25T20:56:23;100748.44;;;17.13;48.67
25638;BME280;13496;51.040;13.680;2024-01-25T21:01:25;100754.69;;;17.12;48.64
25638;BME280;13496;51.040;13.680;2024-01-25T21:06:28;100751.41;;;17.10;48.98
25638;BME280;13496;51.040;13.680;2024-01-25T21:11:30;100759.09;;;17.11;48.86
25638;BME280;13496;51.040;13.680;2024-01-25T21:16:32;100758.28;;;17.11;48.84
25638;BME280;13496;51.040;13.680;2024-01-25T21:21:34;100756.31;;;17.13;49.12
25638;BME280;13496;51.040;13.680;2024-01-25T21:26:35;100757.47;;;17.10;49.09
25638;BME280;13496;51.040;13.680;2024-01-25T21:31:37;100765.84;;;17.14;49.15
25638;BME280;13496;51.040;13.680;2024-01-25T21:36:39;100768.31;;;17.15;49.12
25638;BME280;13496;51.040;13.680;2024-01-25T21:41:41;100773.72;;;17.14;49.14
25638;BME280;13496;51.040;13.680;2024-01-25T21:46:42;100765.03;;;17.13;49.30
25638;BME280;13496;51.040;13.680;2024-01-25T21:51:45;100777.00;;;17.16;49.00
25638;BME280;13496;51.040;13.680;2024-01-25T21:56:47;100764.03;;;17.14;48.89
25638;BME280;13496;51.040;13.680;2024-01-25T22:01:49;100773.72;;;17.14;48.97
25638;BME280;13496;51.040;13.680;2024-01-25T22:06:50;100778.78;;;17.15;48.98
25638;BME280;13496;51.040;13.680;2024-01-25T22:11:52;100770.94;;;17.15;48.98
25638;BME280;13496;51.040;13.680;2024-01-25T22:16:54;100775.66;;;17.12;48.97
25638;BME280;13496;51.040;13.680;2024-01-25T22:21:56;100784.84;;;17.16;48.94
25638;BME280;13496;51.040;13.680;2024-01-25T22:26:57;100783.06;;;17.16;49.16
25638;BME280;13496;51.040;13.680;2024-01-25T22:31:59;100780.59;;;17.15;48.98
25638;BME280;13496;51.040;13.680;2024-01-25T22:37:01;100778.97;;;17.14;49.09
25638;BME280;13496;51.040;13.680;2024-01-25T22:42:03;100772.72;;;17.15;49.04
25638;BME280;13496;51.040;13.680;2024-01-25T22:47:05;100777.28;;;17.13;49.21
25638;BME280;13496;51.040;13.680;2024-01-25T22:52:07;100771.22;;;17.12;49.00
25638;BME280;13496;51.040;13.680;2024-01-25T22:57:08;100777.16;;;17.14;49.30
25638;BME280;13496;51.040;13.680;2024-01-25T23:02:10;100781.41;;;17.15;49.09
25638;BME280;13496;51.040;13.680;2024-01-25T23:07:12;100775.34;;;17.15;49.38
25638;BME280;13496;51.040;13.680;2024-01-25T23:12:14;100778.97;;;17.14;49.29
25638;BME280;13496;51.040;13.680;2024-01-25T23:17:15;100776.34;;;17.14;49.29
25638;BME280;13496;51.040;13.680;2024-01-25T23:22:17;100765.84;;;17.14;49.60
25638;BME280;13496;51.040;13.680;2024-01-25T23:27:19;100768.47;;;17.14;49.31
25638;BME280;13496;51.040;13.680;2024-01-25T23:32:21;100759.91;;;17.12;49.63
25638;BME280;13496;51.040;13.680;2024-01-25T23:37:23;100761.25;;;17.16;49.33
25638;BME280;13496;51.040;13.680;2024-01-25T23:42:26;100751.91;;;17.13;49.57
25638;BME280;13496;51.040;13.680;2024-01-25T23:47:29;100749.13;;;17.15;49.30
25638;BME280;13496;51.040;13.680;2024-01-25T23:52:31;100757.00;;;17.15;49.48
25638;BME280;13496;51.040;13.680;2024-01-25T23:57:32;100757.97;;;17.14;49.41
